Bassilevousa — SVCQ7 — position and weather

sailwx.info

Track history (hours):
 
Tides and Currents Weather Stations Pressure Air Temp Water Temp Dewpoint Dewpoint Depression Visibility Wind Speed Wind Dir Waves Ship Positions

Bassilevousa

Last reported at 2018-May-24 07:07 UTC. Time now 2018-May-24 23:16 UTC.
Position N 37°39' E 025°53'.

Length 183 m; draft 7.8 m.

Type: Tanker. MMSI: 241522000.

Date/timePositionNaut miles runAvg speedWind from/ knotsBaromVisibWave heightAir tempDewpointWater temp
2018-May-24 07:07N 37°39' E 025°53'513.9
2018-May-24 06:46N 37°34' E 025°52'313.6
2018-May-24 06:31N 37°31' E 025°52'713.1
2018-May-24 06:01N 37°25' E 025°55'25112.7
2018-May-23 10:14N 35°10' E 030°18'313.5
2018-May-23 09:59N 35°10' E 030°22'13813.4
2018-May-22 23:41N 34°16' E 032°58'313.2
2018-May-22 23:27N 34°15' E 033°01'53 1.8
2018-May-21 18:40N 34°57' E 033°41'0 0.0
2018-May-21 13:43N 34°57' E 033°41'0 0.0
2018-May-21 08:55N 34°57' E 033°41'4 0.2
2018-May-20 18:12N 34°58' E 033°45'0 0.0
2018-May-20 17:54N 34°58' E 033°45'0 0.0
2018-May-20 17:27N 34°58' E 033°45'  
2018-May-15 08:19N 36°14' E 014°58'413.0
2018-May-15 07:59N 36°15' E 014°53'613.0
2018-May-15 07:30N 36°17' E 014°45'713.0
2018-May-15 06:58N 36°18' E 014°37'613.1
2018-May-15 06:30N 36°20' E 014°29'713.0
2018-May-15 06:00N 36°22' E 014°22'713.2
2018-May-15 05:30N 36°24' E 014°14'713.2
2018-May-15 05:00N 36°25' E 014°06'713.2
2018-May-15 04:30N 36°27' E 013°58'713.2
2018-May-15 04:00N 36°29' E 013°50'713.3
2018-May-15 03:30N 36°30' E 013°42'713.2
2018-May-15 03:00N 36°32' E 013°34'612.9
2018-May-15 02:30N 36°34' E 013°26'612.7
2018-May-15 02:00N 36°35' E 013°19'712.8
2018-May-15 01:28N 36°37' E 013°10'  
Track history (hours):
 
Tides and Currents Weather Stations Pressure Air Temp Water Temp Dewpoint Dewpoint Depression Visibility Wind Speed Wind Dir Waves Ship Positions

Bassilevousa

Last reported at 2018-May-24 07:07 UTC. Time now 2018-May-24 23:16 UTC.
Position N 37°39' E 025°53'.

Length 183 m; draft 7.8 m.

Type: Tanker. MMSI: 241522000.

Date/timePositionNaut miles runAvg speedWind from/ knotsBaromVisibWave heightAir tempDewpointWater temp
2018-May-24 07:07N 37°39' E 025°53'513.9
2018-May-24 06:46N 37°34' E 025°52'313.6
2018-May-24 06:31N 37°31' E 025°52'713.1
2018-May-24 06:01N 37°25' E 025°55'25112.7
2018-May-23 10:14N 35°10' E 030°18'313.5
2018-May-23 09:59N 35°10' E 030°22'13813.4
2018-May-22 23:41N 34°16' E 032°58'313.2
2018-May-22 23:27N 34°15' E 033°01'53 1.8
2018-May-21 18:40N 34°57' E 033°41'0 0.0
2018-May-21 13:43N 34°57' E 033°41'0 0.0
2018-May-21 08:55N 34°57' E 033°41'4 0.2
2018-May-20 18:12N 34°58' E 033°45'0 0.0
2018-May-20 17:54N 34°58' E 033°45'0 0.0
2018-May-20 17:27N 34°58' E 033°45'  
2018-May-15 08:19N 36°14' E 014°58'413.0
2018-May-15 07:59N 36°15' E 014°53'613.0
2018-May-15 07:30N 36°17' E 014°45'713.0
2018-May-15 06:58N 36°18' E 014°37'613.1
2018-May-15 06:30N 36°20' E 014°29'713.0
2018-May-15 06:00N 36°22' E 014°22'713.2
2018-May-15 05:30N 36°24' E 014°14'713.2
2018-May-15 05:00N 36°25' E 014°06'713.2
2018-May-15 04:30N 36°27' E 013°58'713.2
2018-May-15 04:00N 36°29' E 013°50'713.3
2018-May-15 03:30N 36°30' E 013°42'713.2
2018-May-15 03:00N 36°32' E 013°34'612.9
2018-May-15 02:30N 36°34' E 013°26'612.7
2018-May-15 02:00N 36°35' E 013°19'712.8
2018-May-15 01:28N 36°37' E 013°10'  

Dump ship's entire track history